KPIR/PIR METAR and TAF weather

Enter ICAO airport designator
Station Type Date Time Source
KPIR METAR 2020/09/21 08:53 UTC NOAA

KPIR 210853Z AUTO 01003KT 10SM CLR 12/05 A2999 RMK AO2 SLP145 T01170050 55002


Station Type Date Time Source
KPIR Decoded METAR 2020/09/21 08:53 UTC NOAA

PIERRE REGIONAL AIRPORT, SD, United States (KPIR) 44-23N 100-17W 526M
Sep 21, 2020 - 04:53 AM EDT / 2020.09.21 0853 UTC
Wind: from the N (010 degrees) at 3 MPH (3 KT):0
Visibility: 10 mile(s):0
Sky conditions: clear
Temperature: 53.1 F (11.7 C)
Dew Point: 41.0 F (5.0 C)
Relative Humidity: 63%
Pressure (altimeter): 29.99 in. Hg (1015 hPa)
Pressure tendency: 0.01 inches (0.2 hPa) lower than three hours ago
ob: KPIR 210853Z AUTO 01003KT 10SM CLR 12/05 A2999 RMK AO2 SLP145 T01170050 55002
cycle: 9

Station Type Date Time Source
KPIR TAF 2020/09/21 06:27 UTC NOAA

TAF KPIR 210524Z 2106/2206 VRB03KT P6SM SKC
FM211600 04005KT P6SM SKC

Example: see airport list